Time;durP1;ratioP1;P1;durP2;ratioP2;P2;SDS_P1;SDS_P2;PMS_P1;PMS_P2;Temp;Humidity;BMP_temperature;BMP_pressure;BME280_temperature;BME280_humidity;BME280_pressure;Samples;Min_cycle;Max_cycle;Signal;HPM_P1;HPM_P2
2022/12/07 00:01:46;;;;;;;22.17;13.27;;;5.00;99.90;;;;;;5095420;28;20721;-65
2022/12/07 00:04:16;;;;;;;19.97;12.87;;;5.00;99.90;;;;;;5090734;28;20238;-69
2022/12/07 00:06:46;;;;;;;20.87;11.67;;;4.90;99.90;;;;;;5094106;28;20206;-81
2022/12/07 00:09:18;;;;;;;24.60;13.47;;;4.90;99.90;;;;;;5074638;28;20262;-69
2022/12/07 00:11:51;;;;;;;21.43;13.27;;;5.00;99.90;;;;;;5074856;28;20662;-65
2022/12/07 00:14:20;;;;;;;21.40;12.40;;;5.00;99.90;;;;;;5074713;28;20205;-70
2022/12/07 00:16:51;;;;;;;20.90;11.87;;;5.00;99.90;;;;;;5074797;28;20202;-87
2022/12/07 00:19:19;;;;;;;18.50;11.80;;;5.10;99.90;;;;;;5074946;28;20190;-67
2022/12/07 00:21:48;;;;;;;19.13;11.43;;;5.10;99.90;;;;;;5074923;28;20189;-65
2022/12/07 00:24:18;;;;;;;19.83;11.87;;;5.10;99.90;;;;;;5074476;28;20230;-65
2022/12/07 00:26:46;;;;;;;18.83;11.77;;;5.10;99.90;;;;;;5074768;28;20226;-66
2022/12/07 00:29:17;;;;;;;21.37;12.70;;;5.10;99.90;;;;;;5072649;28;20297;-65
2022/12/07 00:31:46;;;;;;;17.83;11.70;;;5.10;99.90;;;;;;5074539;28;20190;-65
2022/12/07 00:34:16;;;;;;;20.33;12.83;;;5.10;99.90;;;;;;5079456;28;20228;-79
2022/12/07 00:36:45;;;;;;;19.13;11.73;;;5.10;99.90;;;;;;5078379;28;20209;-65
2022/12/07 00:39:14;;;;;;;20.07;11.40;;;5.10;99.90;;;;;;5089704;28;20206;-66
2022/12/07 00:41:44;;;;;;;22.37;12.33;;;5.10;99.90;;;;;;5074261;28;20197;-71
2022/12/07 00:44:12;;;;;;;20.27;12.00;;;5.10;99.90;;;;;;5074143;28;20233;-72
2022/12/07 00:46:41;;;;;;;18.27;11.33;;;5.10;99.90;;;;;;5075072;28;20222;-69
2022/12/07 00:49:09;;;;;;;22.70;11.77;;;5.10;99.90;;;;;;5093893;28;20638;-67
2022/12/07 00:51:38;;;;;;;19.97;12.10;;;5.00;99.90;;;;;;5094470;28;20192;-65
2022/12/07 00:54:06;;;;;;;20.33;11.53;;;5.10;99.90;;;;;;5094586;28;20211;-65
2022/12/07 00:56:35;;;;;;;20.53;12.87;;;5.10;99.90;;;;;;5094248;28;20559;-66
2022/12/07 00:59:05;;;;;;;18.10;11.77;;;5.10;99.90;;;;;;5093635;28;20217;-66
2022/12/07 01:01:36;;;;;;;19.43;11.53;;;5.00;99.90;;;;;;5087596;28;20232;-65
2022/12/07 01:04:05;;;;;;;17.90;11.40;;;5.10;99.90;;;;;;5073481;28;20253;-65
2022/12/07 01:06:34;;;;;;;17.47;11.63;;;5.10;99.90;;;;;;5073838;28;20207;-72
2022/12/07 01:09:04;;;;;;;18.40;11.13;;;5.20;99.90;;;;;;5073842;28;20204;-76
2022/12/07 01:11:33;;;;;;;18.43;11.10;;;5.20;99.90;;;;;;5073761;28;20223;-71
2022/12/07 01:14:02;;;;;;;20.40;11.70;;;5.20;99.90;;;;;;5073520;28;20203;-76
2022/12/07 01:16:33;;;;;;;15.70;11.17;;;5.30;99.90;;;;;;5073594;28;20239;-68
2022/12/07 01:19:04;;;;;;;22.03;12.53;;;5.30;99.90;;;;;;5073817;28;20197;-71
2022/12/07 01:21:37;;;;;;;21.80;11.47;;;5.20;99.90;;;;;;5073579;28;20196;-69
2022/12/07 01:24:08;;;;;;;18.63;10.93;;;5.30;99.90;;;;;;5073621;28;20275;-68
2022/12/07 01:26:37;;;;;;;18.43;10.90;;;5.20;99.90;;;;;;5073493;28;20205;-66
2022/12/07 01:29:05;;;;;;;15.43;10.13;;;5.20;99.90;;;;;;5073394;28;20191;-65
2022/12/07 01:31:35;;;;;;;18.10;10.27;;;5.20;99.90;;;;;;5073282;28;20216;-65
2022/12/07 01:34:04;;;;;;;17.40;10.73;;;5.30;99.90;;;;;;5073204;28;20201;-67
2022/12/07 01:36:34;;;;;;;17.57;10.30;;;5.30;99.90;;;;;;5073268;28;20561;-65
2022/12/07 01:39:07;;;;;;;17.40;10.97;;;5.30;99.90;;;;;;5073136;28;20204;-75
2022/12/07 01:41:39;;;;;;;18.63;10.20;;;5.30;99.90;;;;;;5073367;28;20670;-82
2022/12/07 01:44:26;;;;;;;17.57;10.20;;;5.30;99.90;;;;;;5073019;28;20207;-65
2022/12/07 01:46:58;;;;;;;18.13;10.90;;;5.30;99.90;;;;;;5073188;28;20318;-65
2022/12/07 01:49:31;;;;;;;17.33;10.90;;;5.20;99.90;;;;;;5073107;28;20222;-75
2022/12/07 01:52:07;;;;;;;17.47;11.20;;;5.20;99.90;;;;;;5072902;28;20238;-80
2022/12/07 01:54:36;;;;;;;20.23;11.13;;;5.20;99.90;;;;;;5073021;28;20204;-81
2022/12/07 01:57:07;;;;;;;20.17;10.53;;;5.20;99.90;;;;;;5073037;28;20205;-72
2022/12/07 01:59:36;;;;;;;17.03;10.67;;;5.20;99.90;;;;;;5072979;28;20197;-65
2022/12/07 02:02:14;;;;;;;18.67;9.73;;;5.10;99.90;;;;;;5072600;28;20204;-65
2022/12/07 02:04:43;;;;;;;17.63;10.73;;;5.10;99.90;;;;;;5087535;28;20247;-73
2022/12/07 02:07:11;;;;;;;16.87;10.80;;;5.10;99.90;;;;;;5092768;28;20196;-66
2022/12/07 02:09:40;;;;;;;17.80;10.87;;;5.10;99.90;;;;;;5092930;28;20206;-65
2022/12/07 02:12:09;;;;;;;38.37;22.83;;;5.10;99.90;;;;;;5093025;28;20219;-66
2022/12/07 02:14:38;;;;;;;17.27;10.83;;;5.10;99.90;;;;;;5092953;28;20200;-71
2022/12/07 02:17:17;;;;;;;20.30;10.83;;;5.10;99.90;;;;;;5093056;28;20189;-65
2022/12/07 02:20:07;;;;;;;19.63;11.97;;;5.10;99.90;;;;;;5095807;28;20196;-65
2022/12/07 02:23:05;;;;;;;20.07;10.17;;;5.10;99.90;;;;;;5093818;28;20657;-70
2022/12/07 02:25:53;;;;;;;19.80;10.83;;;5.10;99.90;;;;;;5092527;28;20227;-65
2022/12/07 02:28:31;;;;;;;16.20;11.00;;;5.10;99.90;;;;;;5092616;28;20232;-69
2022/12/07 02:31:07;;;;;;;20.63;10.97;;;5.10;99.90;;;;;;5092409;28;20192;-65
2022/12/07 02:33:41;;;;;;;19.17;11.37;;;5.10;99.90;;;;;;5092609;28;20198;-64
2022/12/07 02:36:17;;;;;;;18.80;11.37;;;5.10;99.90;;;;;;5092571;28;20199;-65
2022/12/07 02:38:51;;;;;;;20.73;11.33;;;5.10;99.90;;;;;;5092278;28;20724;-64
2022/12/07 02:41:26;;;;;;;18.50;11.57;;;5.20;99.90;;;;;;5092430;28;20228;-65
2022/12/07 02:43:57;;;;;;;17.00;10.47;;;5.20;99.90;;;;;;5092336;28;20226;-65
2022/12/07 02:46:30;;;;;;;17.10;10.37;;;5.20;99.90;;;;;;5092077;28;20230;-65
2022/12/07 02:49:00;;;;;;;17.23;10.17;;;5.20;99.90;;;;;;5092162;28;20199;-65
2022/12/07 02:51:32;;;;;;;16.73;10.87;;;5.30;99.90;;;;;;5092280;28;20203;-65
2022/12/07 02:54:02;;;;;;;15.17;10.10;;;5.30;99.90;;;;;;5092062;28;20193;-65
2022/12/07 02:56:38;;;;;;;16.00;9.87;;;5.30;99.90;;;;;;5092092;28;20198;-67
2022/12/07 02:59:18;;;;;;;13.17;9.53;;;5.40;99.90;;;;;;5092208;28;20188;-65
2022/12/07 03:01:59;;;;;;;13.30;9.80;;;5.40;99.90;;;;;;5092097;28;20300;-84
2022/12/07 03:04:47;;;;;;;12.77;9.17;;;5.40;99.90;;;;;;5091799;28;20587;-65
2022/12/07 03:07:26;;;;;;;14.37;8.97;;;5.50;99.90;;;;;;5092065;28;20226;-65
2022/12/07 03:10:02;;;;;;;15.10;9.63;;;5.50;99.90;;;;;;5092009;28;20249;-81
2022/12/07 03:12:36;;;;;;;12.07;8.80;;;5.50;99.90;;;;;;5091710;28;20623;-81
2022/12/07 03:15:09;;;;;;;13.70;8.40;;;5.50;99.90;;;;;;5091826;28;20203;-66
2022/12/07 03:17:43;;;;;;;11.00;9.23;;;5.50;99.90;;;;;;5091948;28;20293;-65
2022/12/07 03:20:16;;;;;;;15.87;9.10;;;5.50;99.90;;;;;;5091803;28;20666;-65
2022/12/07 03:22:47;;;;;;;13.43;8.83;;;5.50;99.90;;;;;;5091716;28;20229;-66
2022/12/07 03:25:18;;;;;;;12.63;9.17;;;5.50;99.90;;;;;;5091604;28;20710;-65
2022/12/07 03:27:55;;;;;;;12.40;9.00;;;5.50;99.90;;;;;;5091703;28;20198;-65
2022/12/07 03:30:28;;;;;;;11.97;8.70;;;5.50;99.90;;;;;;5091599;28;20271;-65
2022/12/07 03:33:02;;;;;;;13.43;8.67;;;5.40;99.90;;;;;;5091594;28;20222;-65
2022/12/07 03:35:37;;;;;;;10.97;8.23;;;5.40;99.90;;;;;;5091493;28;20210;-65
2022/12/07 03:38:14;;;;;;;10.47;8.50;;;5.40;99.90;;;;;;5091796;28;20622;-64
2022/12/07 03:40:50;;;;;;;12.60;8.10;;;5.30;99.90;;;;;;5091626;28;20674;-65
2022/12/07 03:43:19;;;;;;;11.57;8.03;;;5.20;99.90;;;;;;5091560;28;20233;-66
2022/12/07 03:45:57;;;;;;;8.77;6.90;;;5.20;99.90;;;;;;5091367;28;20740;-68
2022/12/07 03:48:34;;;;;;;10.17;7.73;;;5.20;99.90;;;;;;5091445;28;20202;-65
2022/12/07 03:51:13;;;;;;;11.03;7.77;;;5.20;99.90;;;;;;5091486;28;20204;-65
2022/12/07 03:53:45;;;;;;;9.77;7.83;;;5.20;99.90;;;;;;5091395;28;20199;-71
2022/12/07 03:56:15;;;;;;;9.33;7.50;;;5.10;99.90;;;;;;5096694;28;20227;-75
2022/12/07 03:58:44;;;;;;;10.53;8.23;;;5.10;99.90;;;;;;5111890;28;20202;-65
2022/12/07 04:01:13;;;;;;;9.10;7.47;;;5.10;99.90;;;;;;5111435;28;20577;-66
2022/12/07 04:03:42;;;;;;;9.37;7.70;;;5.00;99.90;;;;;;5110947;28;20706;-64
2022/12/07 04:06:11;;;;;;;9.00;7.17;;;5.00;99.90;;;;;;5111799;28;20217;-66
2022/12/07 04:08:40;;;;;;;8.73;7.33;;;5.00;99.90;;;;;;5111793;28;20202;-80
2022/12/07 04:11:08;;;;;;;10.20;7.90;;;5.00;99.90;;;;;;5111670;28;20194;-65
2022/12/07 04:14:18;;;;;;;7.43;6.67;;;5.10;99.90;;;;;;5093380;28;20215;-65
2022/12/07 04:16:25;;;;;;;8.80;6.70;;;5.10;99.90;;;;;;5111421;28;20187;-64
2022/12/07 04:18:55;;;;;;;9.67;7.37;;;5.10;99.90;;;;;;5111577;28;20214;-64
2022/12/07 04:21:23;;;;;;;8.73;6.47;;;5.10;99.90;;;;;;5111594;28;20197;-65
2022/12/07 04:23:52;;;;;;;8.00;7.07;;;5.00;99.90;;;;;;5112072;28;20657;-64
2022/12/07 04:26:20;;;;;;;8.20;7.07;;;5.00;99.90;;;;;;5115270;28;20226;-65
2022/12/07 04:28:49;;;;;;;8.37;7.23;;;5.00;99.90;;;;;;5115069;28;20209;-65
2022/12/07 04:31:17;;;;;;;8.57;7.33;;;5.00;99.90;;;;;;5095767;28;20669;-67
2022/12/07 04:33:46;;;;;;;13.90;10.00;;;5.00;99.90;;;;;;5094466;28;20667;-66
2022/12/07 04:36:16;;;;;;;8.33;7.53;;;4.90;99.90;;;;;;5094524;28;20260;-66
2022/12/07 04:38:45;;;;;;;9.10;7.67;;;5.00;99.90;;;;;;5094695;28;20202;-66
2022/12/07 04:41:13;;;;;;;8.80;7.07;;;5.00;99.90;;;;;;5094499;28;20194;-71
2022/12/07 04:43:42;;;;;;;9.17;7.13;;;5.00;99.90;;;;;;5094602;28;20206;-75
2022/12/07 04:46:10;;;;;;;7.60;6.30;;;5.00;99.90;;;;;;5094309;28;20226;-68
2022/12/07 04:48:39;;;;;;;7.70;6.73;;;5.00;99.90;;;;;;5094530;28;20529;-78
2022/12/07 04:51:07;;;;;;;6.00;5.40;;;4.90;99.90;;;;;;5094452;28;20193;-64
2022/12/07 04:53:37;;;;;;;5.83;5.20;;;4.90;99.90;;;;;;5094672;28;20204;-67
2022/12/07 04:56:06;;;;;;;6.20;5.60;;;4.90;99.90;;;;;;5098665;28;20212;-69
2022/12/07 04:58:34;;;;;;;5.80;5.20;;;5.00;99.90;;;;;;5113586;28;20193;-71
2022/12/07 05:01:03;;;;;;;5.53;4.57;;;4.90;99.90;;;;;;5093165;28;20251;-70
2022/12/07 05:03:31;;;;;;;4.77;4.37;;;5.00;99.90;;;;;;5092842;28;20296;-80
2022/12/07 05:06:00;;;;;;;5.13;4.60;;;5.00;99.90;;;;;;5093379;28;20216;-81
2022/12/07 05:08:28;;;;;;;4.97;4.57;;;4.90;99.90;;;;;;5093194;28;20194;-72
2022/12/07 05:10:58;;;;;;;3.97;3.67;;;4.90;99.90;;;;;;5093380;28;20579;-75
2022/12/07 05:13:27;;;;;;;4.07;3.67;;;4.90;99.90;;;;;;5093550;28;20210;-74
2022/12/07 05:15:55;;;;;;;3.70;3.37;;;4.90;99.90;;;;;;5110427;28;20646;-67
2022/12/07 05:18:24;;;;;;;3.67;3.37;;;4.80;99.90;;;;;;5114184;28;20272;-68
2022/12/07 05:20:52;;;;;;;3.77;3.40;;;4.70;99.90;;;;;;5114309;28;20210;-65
2022/12/07 05:23:21;;;;;;;5.00;3.53;;;4.80;99.90;;;;;;5114055;28;20574;-74
2022/12/07 05:25:49;;;;;;;3.53;3.23;;;4.80;99.90;;;;;;5113921;28;20282;-71
2022/12/07 05:28:19;;;;;;;3.47;3.20;;;4.90;99.90;;;;;;5114142;28;20196;-67
2022/12/07 05:30:48;;;;;;;3.40;3.20;;;4.80;99.90;;;;;;5113997;28;20195;-79
2022/12/07 05:33:16;;;;;;;3.50;3.20;;;4.80;99.90;;;;;;5113899;28;20199;-77
2022/12/07 05:35:45;;;;;;;3.07;2.87;;;4.80;99.90;;;;;;5113593;28;20198;-77
2022/12/07 05:38:13;;;;;;;3.53;3.00;;;4.70;99.90;;;;;;5113859;28;20542;-66
2022/12/07 05:40:42;;;;;;;3.40;3.07;;;4.60;99.90;;;;;;5113737;28;20331;-64
2022/12/07 05:43:11;;;;;;;2.90;2.70;;;4.50;99.90;;;;;;5113693;28;20663;-79
2022/12/07 05:45:41;;;;;;;2.53;2.33;;;4.50;99.90;;;;;;5113494;28;20216;-76
2022/12/07 05:48:10;;;;;;;2.17;2.07;;;4.40;99.90;;;;;;5113663;28;20254;-72
2022/12/07 05:50:39;;;;;;;2.90;2.70;;;4.40;99.90;;;;;;5113708;28;20680;-64
2022/12/07 05:53:07;;;;;;;3.77;2.67;;;4.40;99.90;;;;;;5113691;28;20211;-66
2022/12/07 05:55:36;;;;;;;3.00;2.80;;;4.40;99.90;;;;;;5113434;28;20552;-65
2022/12/07 06:00:52;;;;;;;3.73;3.47;;;4.30;99.90;;;;;;5113091;28;20196;-69
2022/12/07 06:03:20;;;;;;;2.67;2.47;;;4.40;99.90;;;;;;5112870;28;20741;-69
2022/12/07 06:05:49;;;;;;;3.67;2.77;;;4.30;99.90;;;;;;5113159;28;20198;-68
2022/12/07 06:08:17;;;;;;;3.40;3.10;;;4.30;99.90;;;;;;5112974;28;20316;-65
2022/12/07 06:12:33;;;;;;;2.90;2.67;;;4.40;99.90;;;;;;5112961;28;20759;-73
2022/12/07 06:13:36;;;;;;;3.03;2.83;;;4.30;99.90;;;;;;5112902;28;20203;-65
2022/12/07 06:16:09;;;;;;;2.80;2.60;;;4.30;99.90;;;;;;5113060;28;20191;-72
2022/12/07 06:18:37;;;;;;;2.90;2.70;;;4.30;99.90;;;;;;5112825;28;20715;-64
2022/12/07 06:21:06;;;;;;;3.00;2.80;;;4.30;99.90;;;;;;5112789;28;20672;-66
2022/12/07 06:23:34;;;;;;;3.07;2.87;;;4.30;99.90;;;;;;5112681;28;20662;-67
2022/12/07 06:26:03;;;;;;;2.63;2.40;;;4.30;99.90;;;;;;5112871;28;20201;-65
2022/12/07 06:28:31;;;;;;;2.60;2.40;;;4.30;99.90;;;;;;5112575;28;20225;-65
2022/12/07 06:31:00;;;;;;;4.30;2.63;;;4.30;99.90;;;;;;5112565;28;20189;-66
2022/12/07 06:33:30;;;;;;;3.37;3.10;;;4.40;99.90;;;;;;5112677;28;20716;-65
2022/12/07 06:35:59;;;;;;;2.73;2.40;;;4.40;99.90;;;;;;5112471;28;20197;-65
2022/12/07 06:38:27;;;;;;;5.43;2.83;;;4.40;99.90;;;;;;5112604;28;20210;-66
2022/12/07 06:40:56;;;;;;;3.23;2.90;;;4.40;99.90;;;;;;5112512;28;20728;-65
2022/12/07 06:43:24;;;;;;;4.33;4.00;;;4.40;99.90;;;;;;5112410;28;20193;-70
2022/12/07 06:45:53;;;;;;;4.53;3.77;;;4.40;99.90;;;;;;5112010;28;20291;-65
2022/12/07 06:48:21;;;;;;;4.20;3.80;;;4.40;99.90;;;;;;5111703;28;20715;-64
2022/12/07 06:50:52;;;;;;;6.87;3.60;;;4.50;99.90;;;;;;5112253;28;20204;-79
2022/12/07 06:53:22;;;;;;;5.33;3.63;;;4.50;99.90;;;;;;5112233;28;20281;-65
2022/12/07 06:55:51;;;;;;;5.87;3.60;;;4.60;99.90;;;;;;5112157;28;20244;-65
2022/12/07 06:58:19;;;;;;;6.47;3.93;;;4.60;99.90;;;;;;5111979;28;20255;-65
2022/12/07 07:00:50;;;;;;;5.90;4.47;;;4.50;99.90;;;;;;5112158;28;20207;-65
2022/12/07 07:03:18;;;;;;;6.27;4.40;;;4.50;99.90;;;;;;5093649;28;20232;-77
2022/12/07 07:05:47;;;;;;;8.10;5.13;;;4.40;99.90;;;;;;5112350;28;20206;-82
2022/12/07 07:08:18;;;;;;;8.00;5.83;;;4.40;99.90;;;;;;5112100;28;20225;-76
2022/12/07 07:10:50;;;;;;;9.73;6.40;;;4.40;99.90;;;;;;5112081;28;20201;-70
2022/12/07 07:13:18;;;;;;;8.43;6.00;;;4.50;99.90;;;;;;5112129;28;20198;-65
2022/12/07 07:15:46;;;;;;;9.90;6.43;;;4.40;99.90;;;;;;5111916;28;20200;-79
2022/12/07 07:18:15;;;;;;;12.00;6.40;;;4.40;99.90;;;;;;5111912;28;20204;-66
2022/12/07 07:20:44;;;;;;;8.97;6.63;;;4.40;99.90;;;;;;5111968;28;20664;-66
2022/12/07 07:23:12;;;;;;;7.80;6.17;;;4.40;99.90;;;;;;5112013;28;20265;-67
2022/12/07 07:25:42;;;;;;;7.03;6.30;;;4.30;99.90;;;;;;5112089;28;20661;-72
2022/12/07 07:28:11;;;;;;;8.17;5.90;;;4.40;99.90;;;;;;5112025;28;20214;-65
2022/12/07 07:30:40;;;;;;;10.20;6.37;;;4.40;99.90;;;;;;5111838;28;20293;-67
2022/12/07 07:33:10;;;;;;;7.83;6.47;;;4.40;99.90;;;;;;5112026;28;20608;-80
2022/12/07 07:35:39;;;;;;;7.13;5.73;;;4.40;99.90;;;;;;5111812;28;20204;-66
2022/12/07 07:38:07;;;;;;;7.13;5.93;;;4.40;99.90;;;;;;5093598;28;20193;-70
2022/12/07 07:40:37;;;;;;;8.60;5.83;;;4.30;99.90;;;;;;5111830;28;20233;-79
2022/12/07 07:43:07;;;;;;;8.50;6.90;;;4.40;99.90;;;;;;5111719;28;20194;-66
2022/12/07 07:45:35;;;;;;;8.90;5.90;;;4.40;99.90;;;;;;5111813;28;20245;-78
2022/12/07 07:48:04;;;;;;;8.40;5.53;;;4.30;99.90;;;;;;5111568;28;20221;-69
2022/12/07 07:50:32;;;;;;;9.90;5.90;;;4.30;99.90;;;;;;5111592;28;20744;-77
2022/12/07 07:53:01;;;;;;;6.50;5.90;;;4.30;99.90;;;;;;5111475;28;20197;-66
2022/12/07 07:55:29;;;;;;;9.50;6.37;;;4.20;99.90;;;;;;5111697;28;20198;-78
2022/12/07 07:57:58;;;;;;;7.10;6.20;;;4.30;99.90;;;;;;5112436;28;20273;-74
2022/12/07 08:00:28;;;;;;;7.60;6.80;;;4.30;99.90;;;;;;5115729;28;20199;-66
2022/12/07 08:02:56;;;;;;;6.53;5.40;;;4.30;99.90;;;;;;5115564;28;20214;-80
2022/12/07 08:05:25;;;;;;;7.40;6.00;;;4.20;99.90;;;;;;5115257;28;20209;-65
2022/12/07 08:07:53;;;;;;;8.10;6.17;;;4.20;99.90;;;;;;5115415;28;20222;-81
2022/12/07 08:10:22;;;;;;;7.13;6.30;;;4.20;99.90;;;;;;5115230;28;20193;-77
2022/12/07 08:15:39;;;;;;;7.27;5.67;;;4.10;99.90;;;;;;5115251;28;20719;-66
2022/12/07 08:18:08;;;;;;;18.90;11.60;;;4.20;99.90;;;;;;5115222;28;20237;-66
2022/12/07 08:20:38;;;;;;;7.33;5.97;;;4.10;99.90;;;;;;5115121;28;20207;-65
2022/12/07 08:23:08;;;;;;;9.33;7.63;;;4.10;99.90;;;;;;5115158;28;20192;-66
2022/12/07 08:25:37;;;;;;;10.63;5.53;;;4.20;99.90;;;;;;5115097;28;20199;-66
2022/12/07 08:28:05;;;;;;;7.33;5.30;;;4.20;99.90;;;;;;5115111;28;20244;-66
2022/12/07 08:30:34;;;;;;;6.73;5.57;;;4.20;99.90;;;;;;5114905;28;20201;-73
2022/12/07 08:33:04;;;;;;;10.77;7.33;;;4.10;99.90;;;;;;5114694;28;20276;-80
2022/12/07 08:35:34;;;;;;;8.53;6.83;;;4.10;99.90;;;;;;5114835;28;20257;-67
2022/12/07 08:38:03;;;;;;;6.70;5.73;;;4.10;99.90;;;;;;5114562;28;20206;-67
2022/12/07 08:40:32;;;;;;;10.30;7.73;;;4.10;99.90;;;;;;5114789;28;20665;-79
2022/12/07 08:43:00;;;;;;;8.17;6.67;;;4.20;99.90;;;;;;5114704;28;20255;-65
2022/12/07 08:45:32;;;;;;;7.43;6.40;;;4.10;99.90;;;;;;5114644;28;20301;-70
2022/12/07 08:48:08;;;;;;;9.30;6.80;;;4.10;99.90;;;;;;5114478;28;20214;-65
2022/12/07 08:50:38;;;;;;;7.87;6.33;;;4.10;99.90;;;;;;5114704;28;20655;-69
2022/12/07 08:53:10;;;;;;;7.67;6.27;;;4.10;99.90;;;;;;5096418;28;20205;-67
2022/12/07 08:55:39;;;;;;;6.93;5.83;;;4.10;99.90;;;;;;5096461;28;20286;-66
2022/12/07 08:58:07;;;;;;;8.83;6.03;;;4.00;99.90;;;;;;5114558;28;20566;-67
2022/12/07 09:00:36;;;;;;;8.23;5.97;;;4.10;99.90;;;;;;5114536;28;20202;-66
2022/12/07 09:03:05;;;;;;;9.10;6.63;;;4.10;99.90;;;;;;5095826;28;20204;-67
2022/12/07 09:05:35;;;;;;;6.10;4.93;;;4.10;99.90;;;;;;5114273;28;20548;-67
2022/12/07 09:08:03;;;;;;;5.80;5.20;;;4.10;99.90;;;;;;5114474;28;20221;-65
2022/12/07 09:10:32;;;;;;;8.37;6.30;;;4.10;99.90;;;;;;5113672;28;20293;-78
2022/12/07 09:13:00;;;;;;;7.37;5.97;;;4.20;99.90;;;;;;5114281;28;20202;-66
2022/12/07 09:15:29;;;;;;;7.20;6.10;;;4.10;99.90;;;;;;5114021;28;20194;-65
2022/12/07 09:17:57;;;;;;;9.80;6.47;;;4.20;99.90;;;;;;5114257;28;20229;-67
2022/12/07 09:20:27;;;;;;;7.67;5.97;;;4.20;99.90;;;;;;5114181;28;20200;-66
2022/12/07 09:22:56;;;;;;;7.60;6.77;;;4.20;99.90;;;;;;5114129;28;20250;-80
2022/12/07 09:25:24;;;;;;;6.63;6.03;;;4.20;99.90;;;;;;5113950;28;20601;-69
2022/12/07 09:27:57;;;;;;;6.90;5.97;;;4.20;99.90;;;;;;5113935;28;20220;-70
2022/12/07 09:30:26;;;;;;;7.30;6.50;;;4.20;99.90;;;;;;5113794;28;20206;-68
2022/12/07 09:32:56;;;;;;;7.20;5.80;;;4.20;99.90;;;;;;5113754;28;20231;-65
2022/12/07 09:35:25;;;;;;;8.00;6.40;;;4.20;99.90;;;;;;5113740;28;20743;-66
2022/12/07 09:37:55;;;;;;;8.47;7.57;;;4.10;99.90;;;;;;5113562;28;20687;-77
2022/12/07 09:40:24;;;;;;;8.57;6.53;;;4.20;99.90;;;;;;5113832;28;20202;-80
2022/12/07 09:42:55;;;;;;;6.90;6.17;;;4.20;99.90;;;;;;5113685;28;20188;-68
2022/12/07 09:45:27;;;;;;;7.50;6.30;;;4.20;99.90;;;;;;5114026;28;20224;-80
2022/12/07 09:47:55;;;;;;;8.63;6.10;;;4.20;99.90;;;;;;5113233;28;20249;-67
2022/12/07 09:50:27;;;;;;;7.80;5.47;;;4.10;99.90;;;;;;5113535;28;20184;-74
2022/12/07 09:53:07;;;;;;;6.00;5.37;;;4.10;99.90;;;;;;5113538;28;20201;-67
2022/12/07 09:55:44;;;;;;;7.53;6.60;;;4.00;99.90;;;;;;5113341;28;20193;-69
2022/12/07 09:58:20;;;;;;;6.90;6.20;;;4.10;99.90;;;;;;5113266;28;20207;-66
2022/12/07 10:00:49;;;;;;;7.27;6.57;;;4.20;99.90;;;;;;5113514;28;20268;-68
2022/12/07 10:03:18;;;;;;;10.93;7.30;;;4.30;99.90;;;;;;5113103;28;20229;-74
2022/12/07 10:05:50;;;;;;;9.13;7.60;;;4.30;99.90;;;;;;5113420;28;20208;-69
2022/12/07 10:08:20;;;;;;;8.73;6.83;;;4.40;99.90;;;;;;5113399;28;20262;-70
2022/12/07 10:10:52;;;;;;;9.47;6.70;;;4.40;99.90;;;;;;5113220;28;20195;-67
2022/12/07 10:13:22;;;;;;;9.07;5.80;;;4.40;99.90;;;;;;5112995;28;20595;-68
2022/12/07 10:15:53;;;;;;;7.87;6.63;;;4.40;99.90;;;;;;5113176;28;20297;-66
2022/12/07 10:18:30;;;;;;;8.30;7.33;;;4.40;99.90;;;;;;5112880;28;20199;-70
2022/12/07 10:21:10;;;;;;;9.77;6.60;;;4.50;99.90;;;;;;5112538;28;20192;-65
2022/12/07 10:23:42;;;;;;;8.13;6.60;;;4.50;99.90;;;;;;5112599;28;20193;-70
2022/12/07 10:26:27;;;;;;;6.27;5.67;;;4.40;99.90;;;;;;5113105;28;20199;-68
2022/12/07 10:28:56;;;;;;;6.73;5.63;;;4.40;99.90;;;;;;5112757;28;20215;-67
2022/12/07 10:31:25;;;;;;;9.80;6.60;;;4.40;99.90;;;;;;5093946;28;20207;-70
2022/12/07 10:33:55;;;;;;;9.80;6.17;;;4.40;99.90;;;;;;5112751;28;20198;-74
2022/12/07 10:36:27;;;;;;;7.60;6.80;;;4.40;99.90;;;;;;5112614;28;20291;-67
2022/12/07 10:39:02;;;;;;;7.20;5.87;;;4.50;99.90;;;;;;5112690;28;20204;-73
2022/12/07 10:41:30;;;;;;;8.13;6.60;;;4.50;99.90;;;;;;5112686;28;20209;-68
2022/12/07 10:43:59;;;;;;;9.40;6.40;;;4.50;99.90;;;;;;5112451;28;20202;-67
2022/12/07 10:46:53;;;;;;;7.50;6.40;;;4.40;99.90;;;;;;5112721;28;20238;-66
2022/12/07 10:49:44;;;;;;;7.63;5.93;;;4.40;99.90;;;;;;5111982;28;20218;-66
2022/12/07 10:52:24;;;;;;;8.90;7.03;;;4.50;99.90;;;;;;5029810;28;20213;-66
2022/12/07 10:55:08;;;;;;;6.83;5.77;;;4.50;99.90;;;;;;5029721;28;20209;-70
2022/12/07 10:57:48;;;;;;;7.07;6.37;;;4.50;99.90;;;;;;5029661;28;20297;-70
2022/12/07 11:00:19;;;;;;;8.53;6.60;;;4.40;99.90;;;;;;5029812;28;20669;-79
2022/12/07 11:03:21;;;;;;;7.03;6.10;;;4.40;99.90;;;;;;5029629;28;20216;-69
2022/12/07 11:05:57;;;;;;;7.43;6.73;;;4.40;99.90;;;;;;5029683;28;20223;-66
2022/12/07 11:08:44;;;;;;;7.27;5.50;;;4.50;99.90;;;;;;5029780;28;20358;-68
2022/12/07 11:11:20;;;;;;;5.80;5.20;;;4.40;99.90;;;;;;5029673;28;20206;-76
2022/12/07 11:13:57;;;;;;;7.20;6.47;;;4.30;99.90;;;;;;5029598;28;20682;-80
2022/12/07 11:16:35;;;;;;;13.17;9.27;;;4.30;99.90;;;;;;5029353;28;20572;-74
2022/12/07 11:19:25;;;;;;;7.70;6.60;;;4.40;99.90;;;;;;5029457;28;20267;-76
2022/12/07 11:21:58;;;;;;;7.07;5.77;;;4.50;99.90;;;;;;5029182;28;20677;-75
2022/12/07 11:24:36;;;;;;;7.10;5.77;;;4.50;99.90;;;;;;5029481;28;20205;-65
2022/12/07 11:27:17;;;;;;;9.57;7.40;;;4.50;99.90;;;;;;5029460;28;20203;-71
2022/12/07 11:30:01;;;;;;;7.20;6.50;;;4.50;99.90;;;;;;5082308;28;20226;-76
2022/12/07 11:32:47;;;;;;;10.37;6.77;;;4.60;99.90;;;;;;5112019;28;20206;-72
2022/12/07 11:35:25;;;;;;;9.50;7.07;;;4.60;99.90;;;;;;5116394;28;20202;-71
2022/12/07 11:38:02;;;;;;;7.83;6.40;;;4.50;99.90;;;;;;5116128;28;20192;-70
2022/12/07 11:40:35;;;;;;;6.20;5.60;;;4.50;99.90;;;;;;5116030;28;20227;-77
2022/12/07 11:43:14;;;;;;;8.40;6.67;;;4.50;99.90;;;;;;5115986;28;20300;-72
2022/12/07 11:45:45;;;;;;;7.03;6.43;;;4.40;99.90;;;;;;5116431;28;20196;-73
2022/12/07 11:48:20;;;;;;;8.70;6.33;;;4.30;99.90;;;;;;5116215;28;20553;-66
2022/12/07 11:50:53;;;;;;;7.23;6.10;;;4.40;99.90;;;;;;5116026;28;20264;-66
2022/12/07 11:53:26;;;;;;;6.73;5.97;;;4.40;99.90;;;;;;5115848;28;20725;-65
2022/12/07 11:55:58;;;;;;;12.63;8.07;;;4.40;99.90;;;;;;5115964;28;20209;-65
2022/12/07 11:58:55;;;;;;;8.73;7.13;;;4.40;99.90;;;;;;5115819;28;20318;-73
2022/12/07 12:01:48;;;;;;;9.60;6.93;;;4.50;99.90;;;;;;5115968;28;20203;-66
2022/12/07 12:04:37;;;;;;;7.43;6.70;;;4.40;99.90;;;;;;5115493;28;20562;-67
2022/12/07 12:07:08;;;;;;;9.83;6.93;;;4.40;99.90;;;;;;5115571;28;20200;-74
2022/12/07 12:10:03;;;;;;;7.57;5.93;;;4.50;99.90;;;;;;5115124;28;20223;-66
2022/12/07 12:12:49;;;;;;;6.53;5.90;;;4.50;99.90;;;;;;5115173;28;20205;-76
2022/12/07 12:15:59;;;;;;;8.13;7.07;;;4.50;99.90;;;;;;5115401;28;20228;-67
2022/12/07 12:18:39;;;;;;;7.67;6.67;;;4.50;99.90;;;;;;5115328;28;20198;-65
2022/12/07 12:21:11;;;;;;;9.40;6.23;;;4.40;99.90;;;;;;5115375;28;20207;-67
2022/12/07 12:23:44;;;;;;;8.93;7.33;;;4.30;99.90;;;;;;5115522;28;20298;-66
2022/12/07 12:26:20;;;;;;;8.13;6.73;;;4.30;99.90;;;;;;5115552;28;20244;-71
2022/12/07 12:28:58;;;;;;;7.57;5.83;;;4.40;99.90;;;;;;5115165;28;20193;-64
2022/12/07 12:31:39;;;;;;;8.20;6.47;;;4.40;99.90;;;;;;5115124;28;20648;-65
2022/12/07 12:34:33;;;;;;;9.30;7.03;;;4.50;99.90;;;;;;5114936;28;20199;-67
2022/12/07 12:37:01;;;;;;;6.27;5.50;;;4.60;99.90;;;;;;5115032;28;20261;-67
2022/12/07 12:39:30;;;;;;;7.33;4.53;;;4.50;99.90;;;;;;5114941;28;20675;-65
2022/12/07 12:42:06;;;;;;;5.73;5.13;;;4.30;99.90;;;;;;5114802;28;20548;-80
2022/12/07 12:45:22;;;;;;;5.47;4.73;;;4.20;99.90;;;;;;5113825;28;20201;-69
2022/12/07 12:47:57;;;;;;;5.90;5.27;;;4.20;99.90;;;;;;5114866;28;20279;-67
2022/12/07 12:50:29;;;;;;;5.63;4.83;;;4.20;99.90;;;;;;5114745;28;20228;-72
2022/12/07 12:53:20;;;;;;;5.17;4.57;;;4.30;99.90;;;;;;5114655;28;20649;-81
2022/12/07 12:56:36;;;;;;;4.70;4.30;;;4.40;99.90;;;;;;5096436;28;20211;-81
2022/12/07 12:59:30;;;;;;;10.23;6.37;;;4.30;99.90;;;;;;5031896;28;20226;-79
2022/12/07 13:02:17;;;;;;;8.57;4.80;;;4.30;99.90;;;;;;4972964;28;20220;-79
2022/12/07 13:04:58;;;;;;;6.20;5.40;;;4.40;99.90;;;;;;4972798;28;20234;-79
2022/12/07 13:07:55;;;;;;;5.87;5.03;;;4.30;99.90;;;;;;4972860;28;20203;-65
2022/12/07 13:10:40;;;;;;;6.90;5.73;;;4.30;99.90;;;;;;4972603;28;20790;-69
2022/12/07 13:13:34;;;;;;;6.60;5.60;;;4.20;99.90;;;;;;4972765;28;20699;-65
2022/12/07 13:16:51;;;;;;;5.43;4.10;;;4.10;99.90;;;;;;4972559;28;20234;-65
2022/12/07 13:19:59;;;;;;;8.23;5.43;;;4.00;99.90;;;;;;4972588;28;20233;-65
2022/12/07 13:22:55;;;;;;;6.93;5.57;;;4.10;99.90;;;;;;4956321;28;20650;-66
2022/12/07 13:25:39;;;;;;;9.87;6.20;;;4.10;99.90;;;;;;4972641;28;20202;-65
2022/12/07 13:28:16;;;;;;;6.50;5.23;;;4.10;99.90;;;;;;4972783;28;20202;-66